Time;durP1;ratioP1;P1;durP2;ratioP2;P2;SDS_P1;SDS_P2;PMS_P1;PMS_P2;Temp;Humidity;BMP_temperature;BMP_pressure;BME280_temperature;BME280_humidity;BME280_pressure;Samples;Min_cycle;Max_cycle;Signal;HPM_P1;HPM_P2
2022/10/27 00:02:08;;;;;;;;;3.25;2.00;;;;;17.42;70.03;101446.41;4977148;28;46447;-70
2022/10/27 00:04:34;;;;;;;;;2.00;2.00;;;;;17.29;70.18;101425.41;4977513;28;45342;-72
2022/10/27 00:06:59;;;;;;;;;4.67;2.67;;;;;17.41;70.11;101443.84;4975828;28;45521;-71
2022/10/27 00:09:24;;;;;;;;;1.67;1.67;;;;;17.29;70.30;101433.47;4977599;28;45253;-72
2022/10/27 00:11:50;;;;;;;;;3.00;3.00;;;;;17.43;70.28;101460.69;4976945;28;48578;-71
2022/10/27 00:14:15;;;;;;;;;4.33;4.33;;;;;17.42;70.04;101478.66;4976772;28;45495;-73
2022/10/27 00:16:41;;;;;;;;;8.00;4.00;;;;;17.07;70.23;101420.75;4976982;28;45468;-72
2022/10/27 00:19:06;;;;;;;;;3.67;3.67;;;;;17.43;70.36;101491.09;4976879;28;45228;-71
2022/10/27 00:21:32;;;;;;;;;2.00;2.00;;;;;17.43;70.07;101490.25;4991894;28;52692;-71
2022/10/27 00:23:57;;;;;;;;;4.00;2.25;;;;;17.42;70.33;101488.53;4975462;28;57535;-69
2022/10/27 00:26:22;;;;;;;;;3.67;2.67;;;;;17.02;70.02;101432.00;4977036;28;45766;-70
2022/10/27 00:28:48;;;;;;;;;2.00;2.00;;;;;17.33;70.07;101485.03;4975779;28;45478;-69
2022/10/27 00:31:21;;;;;;;;;3.00;2.00;;;;;17.03;70.30;101438.22;4976780;28;46989;-72
2022/10/27 00:33:48;;;;;;;;;3.00;3.00;;;;;17.20;70.23;101473.94;4976590;28;45316;-70
2022/10/27 00:36:19;;;;;;;;;3.67;3.67;;;;;16.99;70.16;101444.91;4975428;28;45391;-71
2022/10/27 00:38:45;;;;;;;;;3.67;1.00;;;;;17.21;70.35;101481.84;4977579;28;45628;-71
2022/10/27 00:41:38;;;;;;;;;3.33;3.33;;;;;17.19;70.62;101474.97;4976468;28;45857;-70
2022/10/27 00:44:30;;;;;;;;;1.00;1.00;;;;;17.18;70.76;101471.44;4963592;28;45504;-71
2022/10/27 00:46:59;;;;;;;;;5.00;4.00;;;;;17.17;70.53;101469.75;4970261;28;45336;-72
2022/10/27 00:49:29;;;;;;;;;5.00;4.00;;;;;17.12;70.40;101456.00;4976738;28;45468;-72
2022/10/27 00:52:03;;;;;;;;;3.00;3.00;;;;;16.45;70.40;101355.97;4975247;28;47300;-70
2022/10/27 00:54:35;;;;;;;;;3.00;1.33;;;;;17.10;70.81;101479.50;4976207;28;45440;-69
2022/10/27 00:57:02;;;;;;;;;4.33;2.00;;;;;16.28;70.40;101348.91;4976604;28;45245;-71
2022/10/27 00:59:28;;;;;;;;;4.00;3.00;;;;;17.11;70.65;101475.81;4977082;28;45527;-72
2022/10/27 01:01:54;;;;;;;;;2.33;2.33;;;;;16.90;70.49;101429.81;4978503;28;46404;-70
2022/10/27 01:04:32;;;;;;;;;2.00;2.00;;;;;17.09;70.41;101475.16;4979917;28;45501;-70
2022/10/27 01:06:59;;;;;;;;;2.67;2.67;;;;;17.00;70.42;101451.97;4960994;28;45430;-71
2022/10/27 01:09:25;;;;;;;;;1.00;1.00;;;;;17.06;70.62;101467.44;4959545;28;45588;-72
2022/10/27 01:11:50;;;;;;;;;0.00;0.00;;;;;17.07;70.42;101473.66;4970953;28;46543;-70
2022/10/27 01:14:16;;;;;;;;;2.33;2.33;;;;;17.08;70.29;101451.13;4994473;28;45294;-71
2022/10/27 01:17:09;;;;;;;;;2.00;2.00;;;;;16.69;70.37;101401.63;4992417;28;45387;-71
2022/10/27 01:19:53;;;;;;;;;2.00;2.00;;;;;16.35;70.35;101341.84;4979597;28;45538;-70
2022/10/27 01:22:29;;;;;;;;;1.67;1.67;;;;;17.06;70.62;101462.06;4979422;28;46728;-72
2022/10/27 01:25:15;;;;;;;;;1.33;1.33;;;;;17.03;70.39;101454.34;4979088;28;45308;-70
2022/10/27 01:27:40;;;;;;;;;6.00;2.67;;;;;17.01;70.73;101450.97;4979467;28;45247;-71
2022/10/27 01:30:10;;;;;;;;;2.00;2.00;;;;;16.99;70.26;101450.28;4979736;28;45512;-72
2022/10/27 01:32:50;;;;;;;;;1.67;1.67;;;;;16.79;70.42;101420.25;4979231;28;45427;-72
2022/10/27 01:35:18;;;;;;;;;5.67;3.67;;;;;16.98;70.45;101448.63;4972548;28;45519;-71
2022/10/27 01:37:58;;;;;;;;;2.00;2.00;;;;;16.92;70.68;101443.94;4979588;28;45479;-73
2022/10/27 01:40:44;;;;;;;;;2.33;2.33;;;;;15.35;70.71;101217.66;4979597;28;45512;-71
2022/10/27 01:43:16;;;;;;;;;1.33;1.33;;;;;16.65;70.55;101413.69;4978626;28;46024;-71
2022/10/27 01:45:42;;;;;;;;;2.00;2.00;;;;;16.63;70.61;101413.03;4979198;28;45291;-70
2022/10/27 01:48:09;;;;;;;;;3.33;2.00;;;;;16.92;70.89;101450.13;4978882;28;45416;-72
2022/10/27 01:50:38;;;;;;;;;3.00;2.00;;;;;16.93;70.63;101456.34;4979260;28;45219;-70
2022/10/27 01:53:03;;;;;;;;;4.00;2.00;;;;;16.88;70.51;101450.66;4978741;28;45857;-70
2022/10/27 01:55:40;;;;;;;;;1.67;1.67;;;;;16.94;70.48;101455.34;4978885;28;45341;-72
2022/10/27 01:58:21;;;;;;;;;2.67;2.67;;;;;16.88;70.34;101439.91;4979224;28;45342;-71
2022/10/27 02:01:18;;;;;;;;;2.33;2.00;;;;;16.95;70.30;101449.78;4979115;28;45241;-70
2022/10/27 02:03:59;;;;;;;;;2.00;2.00;;;;;16.97;70.33;101445.09;4985760;28;47250;-69
2022/10/27 02:06:42;;;;;;;;;2.00;2.00;;;;;16.97;70.20;101438.88;4970954;28;45425;-71
2022/10/27 02:09:38;;;;;;;;;2.25;1.00;;;;;16.82;70.26;101416.38;4978670;28;45302;-70
2022/10/27 02:12:10;;;;;;;;;4.00;3.00;;;;;16.96;69.91;101434.50;4977979;28;45550;-71
2022/10/27 02:14:37;;;;;;;;;3.00;3.00;;;;;16.61;70.26;101377.41;4978405;28;45808;-72
2022/10/27 02:17:07;;;;;;;;;2.67;2.67;;;;;16.91;70.28;101423.44;4978579;28;45440;-70
2022/10/27 02:19:35;;;;;;;;;4.33;2.00;;;;;16.53;69.67;101357.81;4969854;28;45289;-71
2022/10/27 02:22:04;;;;;;;;;2.67;2.67;;;;;16.19;69.91;101302.44;4978897;28;45561;-69
2022/10/27 02:24:30;;;;;;;;;2.00;2.00;;;;;16.91;69.85;101420.75;4978794;28;45817;-70
2022/10/27 02:27:01;;;;;;;;;2.00;2.00;;;;;16.90;70.00;101419.09;4979018;28;45356;-70
2022/10/27 02:29:35;;;;;;;;;4.00;4.00;;;;;16.91;69.64;101418.06;4978502;28;45574;-71
2022/10/27 02:32:04;;;;;;;;;4.00;4.00;;;;;16.90;70.29;101421.75;4977214;28;45552;-71
2022/10/27 02:34:31;;;;;;;;;1.67;1.67;;;;;16.72;70.00;101390.56;4978026;28;45932;-69
2022/10/27 02:36:57;;;;;;;;;2.75;2.75;;;;;16.31;69.82;101305.63;4978229;28;45426;-70
2022/10/27 02:39:23;;;;;;;;;3.75;2.00;;;;;16.84;69.68;101425.13;4978170;28;45230;-70
2022/10/27 02:41:48;;;;;;;;;3.00;2.00;;;;;16.88;69.44;101413.03;4978784;28;45471;-70
2022/10/27 02:44:13;;;;;;;;;3.67;2.33;;;;;16.81;69.78;101407.50;4978297;28;46363;-70
2022/10/27 02:46:39;;;;;;;;;3.00;3.00;;;;;16.41;69.68;101343.88;4977946;28;45380;-71
2022/10/27 02:49:04;;;;;;;;;2.00;2.00;;;;;16.82;70.00;101405.63;4978404;28;45551;-70
2022/10/27 02:51:30;;;;;;;;;3.33;2.33;;;;;16.81;69.88;101409.34;4978332;28;45559;-70
2022/10/27 02:53:55;;;;;;;;;1.00;1.00;;;;;16.07;70.09;101291.22;4989971;28;48632;-70
2022/10/27 02:56:20;;;;;;;;;3.00;2.00;;;;;16.77;70.02;101413.38;4966900;28;45358;-70
2022/10/27 02:58:46;;;;;;;;;2.00;2.00;;;;;16.70;70.08;101406.00;4976604;28;45304;-71
2022/10/27 03:01:11;;;;;;;;;2.00;2.00;;;;;16.73;69.95;101405.66;4993321;28;45492;-70
2022/10/27 03:03:36;;;;;;;;;2.00;2.00;;;;;16.62;69.99;101395.22;4976415;28;47616;-71
2022/10/27 03:06:02;;;;;;;;;4.33;3.33;;;;;16.34;69.80;101370.53;4977783;28;45300;-70
2022/10/27 03:08:27;;;;;;;;;3.67;2.67;;;;;16.23;69.97;101348.56;4993003;28;45418;-70
2022/10/27 03:10:53;;;;;;;;;1.33;1.33;;;;;16.67;70.13;101414.38;4978064;28;45329;-73
2022/10/27 03:13:18;;;;;;;;;2.33;2.33;;;;;16.33;70.12;101368.03;4978017;28;45698;-70
2022/10/27 03:15:44;;;;;;;;;2.33;2.00;;;;;15.85;70.20;101286.50;4977265;28;45492;-68
2022/10/27 03:18:10;;;;;;;;;3.33;2.00;;;;;16.21;70.18;101342.50;4978009;28;45529;-71
2022/10/27 03:20:35;;;;;;;;;2.00;2.00;;;;;16.53;70.21;101396.22;4977896;28;45230;-74
2022/10/27 03:23:01;;;;;;;;;4.25;4.25;;;;;16.50;70.19;101415.34;4976843;28;46711;-69
2022/10/27 03:25:26;;;;;;;;;2.00;2.00;;;;;16.45;70.58;101395.38;4992620;28;54404;-68
2022/10/27 03:27:51;;;;;;;;;1.00;1.00;;;;;16.40;70.40;101398.53;4977496;28;45425;-71
2022/10/27 03:30:17;;;;;;;;;4.33;3.00;;;;;16.48;69.88;101416.53;4992957;28;45598;-71
2022/10/27 03:32:50;;;;;;;;;2.00;2.00;;;;;15.72;70.29;101288.81;4977141;28;46357;-72
2022/10/27 03:35:17;;;;;;;;;4.00;3.00;;;;;16.21;70.04;101382.75;4977208;28;45693;-70
2022/10/27 03:37:43;;;;;;;;;3.00;2.00;;;;;16.41;70.14;101419.00;4977620;28;45434;-74
2022/10/27 03:40:09;;;;;;;;;2.00;2.00;;;;;16.27;70.33;101380.25;4975928;28;45725;-71
2022/10/27 03:42:39;;;;;;;;;3.00;2.00;;;;;16.01;70.18;101342.81;4977164;28;46367;-70
2022/10/27 03:45:05;;;;;;;;;2.33;2.33;;;;;16.20;70.22;101381.91;4991984;28;45798;-71
2022/10/27 03:47:30;;;;;;;;;2.00;2.00;;;;;16.35;70.22;101417.00;4977463;28;45222;-70
2022/10/27 03:49:55;;;;;;;;;6.00;2.67;;;;;16.32;70.06;101410.13;4977386;28;46060;-70
2022/10/27 03:52:21;;;;;;;;;5.33;4.00;;;;;16.32;69.96;101409.28;4976920;28;46455;-72
2022/10/27 03:54:47;;;;;;;;;2.00;2.00;;;;;15.67;69.43;101296.50;4976806;28;45274;-71
2022/10/27 03:57:12;;;;;;;;;3.67;3.67;;;;;16.34;69.93;101418.84;4975338;28;45593;-71
2022/10/27 03:59:38;;;;;;;;;3.67;2.33;;;;;16.28;69.96;101397.22;4977488;28;45532;-72
2022/10/27 04:02:03;;;;;;;;;5.00;3.33;;;;;15.69;69.82;101310.59;4976706;28;46371;-70
2022/10/27 04:04:29;;;;;;;;;3.33;3.33;;;;;16.12;70.05;101385.44;4976964;28;45583;-71
2022/10/27 04:06:54;;;;;;;;;3.33;3.00;;;;;16.03;69.91;101367.66;4976569;28;48177;-70
2022/10/27 04:09:19;;;;;;;;;2.67;2.67;;;;;16.01;70.21;101358.91;4975147;28;45402;-71
2022/10/27 04:11:45;;;;;;;;;3.00;3.00;;;;;16.29;70.01;101402.41;4976899;28;45500;-72
2022/10/27 04:14:10;;;;;;;;;2.33;2.33;;;;;16.28;69.94;101416.00;4976158;28;46013;-72
2022/10/27 04:16:36;;;;;;;;;3.67;3.67;;;;;15.86;69.89;101347.16;4976329;28;45261;-73
2022/10/27 04:19:01;;;;;;;;;3.33;2.33;;;;;15.68;69.93;101314.25;4976449;28;45405;-72
2022/10/27 04:21:26;;;;;;;;;4.33;3.67;;;;;16.25;69.98;101413.63;4991479;28;48331;-72
2022/10/27 04:23:52;;;;;;;;;4.00;4.00;;;;;16.16;69.99;101393.16;4976467;28;57750;-71
2022/10/27 04:26:17;;;;;;;;;3.67;3.67;;;;;15.90;70.00;101356.56;4976614;28;45317;-71
2022/10/27 04:28:42;;;;;;;;;3.00;2.00;;;;;16.08;70.12;101388.63;4992125;28;45572;-72
2022/10/27 04:31:08;;;;;;;;;3.67;3.67;;;;;15.98;70.10;101375.31;4976328;28;45379;-70
2022/10/27 04:33:33;;;;;;;;;7.00;4.00;;;;;16.02;70.04;101389.28;4977580;28;45308;-72
2022/10/27 04:35:58;;;;;;;;;5.67;3.00;;;;;15.81;70.02;101341.44;4980607;28;45635;-70
2022/10/27 04:38:24;;;;;;;;;3.67;3.33;;;;;15.72;70.28;101321.81;4980286;28;45342;-69
2022/10/27 04:40:49;;;;;;;;;3.00;2.00;;;;;16.20;70.36;101389.97;4978780;28;47449;-69
2022/10/27 04:43:14;;;;;;;;;2.67;2.67;;;;;16.19;70.25;101390.97;4979269;28;48661;-71
2022/10/27 04:45:41;;;;;;;;;3.00;3.00;;;;;16.18;70.30;101393.81;4978384;28;45265;-69
2022/10/27 04:48:06;;;;;;;;;3.00;3.00;;;;;16.11;70.16;101370.34;4980486;28;45428;-70
2022/10/27 04:50:31;;;;;;;;;4.00;4.00;;;;;15.80;70.38;101334.38;4978341;28;48349;-70
2022/10/27 04:53:00;;;;;;;;;3.00;3.00;;;;;15.88;70.24;101341.63;4980085;28;45397;-71
2022/10/27 04:55:27;;;;;;;;;4.00;4.00;;;;;16.05;70.18;101381.75;4994924;28;45523;-70
2022/10/27 04:57:53;;;;;;;;;4.00;4.00;;;;;16.18;70.28;101394.66;4995099;28;45637;-70
2022/10/27 05:00:19;;;;;;;;;8.33;5.00;;;;;15.94;70.38;101351.69;4979305;28;45682;-72
2022/10/27 05:02:44;;;;;;;;;6.00;4.00;;;;;16.17;70.19;101389.47;4979601;28;45484;-74
2022/10/27 05:05:10;;;;;;;;;3.00;3.00;;;;;16.06;70.26;101382.56;4980787;28;45241;-72
2022/10/27 05:07:35;;;;;;;;;4.00;4.00;;;;;15.98;70.34;101363.75;4979661;28;45632;-71
2022/10/27 05:10:00;;;;;;;;;7.67;4.00;;;;;16.09;70.52;101385.75;4979754;28;46029;-72
2022/10/27 05:12:26;;;;;;;;;4.33;4.33;;;;;16.00;70.56;101369.81;4980314;28;45260;-72
2022/10/27 05:14:51;;;;;;;;;3.00;3.00;;;;;15.98;70.36;101369.97;4979813;28;45779;-73
2022/10/27 05:17:17;;;;;;;;;6.00;3.67;;;;;15.94;70.51;101368.63;4979874;28;45690;-72
2022/10/27 05:19:42;;;;;;;;;3.00;3.00;;;;;15.94;70.24;101357.06;4979628;28;45741;-73
2022/10/27 05:22:07;;;;;;;;;4.00;3.00;;;;;15.84;70.48;101335.75;4978399;28;45503;-69
2022/10/27 05:24:33;;;;;;;;;3.00;3.00;;;;;16.12;70.65;101382.75;4979638;28;45666;-72
2022/10/27 05:26:58;;;;;;;;;4.00;4.00;;;;;16.10;70.23;101394.66;4979525;28;45228;-69
2022/10/27 05:29:24;;;;;;;;;5.00;4.00;;;;;16.09;70.47;101371.50;4978279;28;47374;-72
2022/10/27 05:31:51;;;;;;;;;6.67;5.67;;;;;15.88;70.36;101347.84;4980154;28;45849;-72
2022/10/27 05:34:16;;;;;;;;;6.00;5.00;;;;;15.79;70.41;101325.50;4995187;28;45582;-72
2022/10/27 05:36:42;;;;;;;;;7.33;4.67;;;;;16.07;70.47;101373.53;4979347;28;45441;-75
2022/10/27 05:39:07;;;;;;;;;5.67;3.00;;;;;16.06;70.58;101377.22;4979137;28;45371;-71
2022/10/27 05:41:32;;;;;;;;;4.33;4.33;;;;;16.07;70.62;101376.22;4979327;28;57848;-71
2022/10/27 05:43:58;;;;;;;;;6.67;4.00;;;;;16.02;71.11;101357.94;4980276;28;45283;-70
2022/10/27 05:46:23;;;;;;;;;5.33;3.67;;;;;16.04;70.91;101369.34;4993995;28;45532;-72
2022/10/27 05:48:48;;;;;;;;;5.00;3.00;;;;;15.94;70.61;101352.53;4978834;28;57417;-70
2022/10/27 05:51:14;;;;;;;;;4.00;4.00;;;;;16.00;70.64;101376.00;4978871;28;45412;-72
2022/10/27 05:53:39;;;;;;;;;5.00;4.00;;;;;15.90;71.07;101351.19;4979494;28;45409;-71
2022/10/27 05:56:04;;;;;;;;;5.00;5.00;;;;;15.95;70.77;101353.38;4979066;28;45258;-72
2022/10/27 05:58:30;;;;;;;;;4.67;4.67;;;;;16.05;70.76;101368.31;4978545;28;45958;-72
2022/10/27 06:00:59;;;;;;;;;5.67;3.33;;;;;16.06;70.69;101364.63;4979539;28;45207;-77
2022/10/27 06:03:25;;;;;;;;;5.00;5.00;;;;;14.28;70.64;101063.00;4978411;28;45478;-72
2022/10/27 06:05:52;;;;;;;;;3.00;3.00;;;;;16.06;70.34;101351.22;4979783;28;45506;-70
2022/10/27 06:08:18;;;;;;;;;8.33;6.00;;;;;16.04;70.20;101328.25;4994103;28;47852;-71
2022/10/27 06:10:45;;;;;;;;;8.00;5.00;;;;;15.76;70.32;101296.34;4993684;28;45604;-70
2022/10/27 06:13:15;;;;;;;;;6.00;4.67;;;;;16.16;70.56;101344.84;4978656;28;45457;-72
2022/10/27 06:15:41;;;;;;;;;4.00;4.00;;;;;15.75;70.39;101288.47;4977695;28;45605;-72
2022/10/27 06:18:07;;;;;;;;;7.00;6.33;;;;;16.19;70.44;101356.09;4978591;28;45770;-72
2022/10/27 06:20:32;;;;;;;;;8.67;5.00;;;;;16.14;70.16;101345.03;4993995;28;45544;-70
2022/10/27 06:23:00;;;;;;;;;6.00;5.00;;;;;15.92;70.08;101306.28;4979494;28;45384;-72
2022/10/27 06:25:26;;;;;;;;;5.67;4.67;;;;;15.97;70.14;101314.66;4978930;28;45561;-72
2022/10/27 06:27:51;;;;;;;;;4.00;4.00;;;;;15.99;70.17;101323.38;4979660;28;45634;-74
2022/10/27 06:30:16;;;;;;;;;8.00;6.00;;;;;15.24;70.08;101179.63;4978944;28;45231;-72
2022/10/27 06:32:42;;;;;;;;;7.00;4.67;;;;;16.21;69.81;101329.94;4977506;28;45259;-72
2022/10/27 06:35:08;;;;;;;;;7.00;5.00;;;;;15.38;69.93;101192.38;4978886;28;45202;-71
2022/10/27 06:37:43;;;;;;;;;8.33;6.00;;;;;16.24;70.06;101326.09;4993525;28;47828;-70
2022/10/27 06:40:13;;;;;;;;;6.00;5.33;;;;;16.21;69.91;101332.63;4979036;28;45277;-72
2022/10/27 06:42:39;;;;;;;;;6.33;4.00;;;;;16.25;70.02;101335.84;4993664;28;45331;-71
2022/10/27 06:45:05;;;;;;;;;8.00;7.67;;;;;16.11;69.76;101302.44;4977455;28;45264;-73
2022/10/27 06:47:31;;;;;;;;;5.67;4.00;;;;;16.10;69.82;101301.59;4993136;28;46512;-72
2022/10/27 06:49:57;;;;;;;;;7.67;7.67;;;;;16.29;69.67;101329.13;4979980;28;45544;-73
2022/10/27 06:52:22;;;;;;;;;7.33;5.67;;;;;16.22;69.64;101309.31;4980654;28;45220;-73
2022/10/27 06:54:48;;;;;;;;;6.33;5.67;;;;;16.17;69.31;101290.19;4978784;28;45423;-72
2022/10/27 06:57:13;;;;;;;;;7.33;6.00;;;;;16.45;69.30;101329.13;4977022;28;46054;-73
2022/10/27 06:59:39;;;;;;;;;7.33;5.00;;;;;16.19;69.59;101280.13;4978116;28;45427;-72
2022/10/27 07:02:04;;;;;;;;;6.67;6.00;;;;;16.52;69.26;101351.59;4978819;28;45457;-71
2022/10/27 07:04:30;;;;;;;;;7.67;6.33;;;;;16.57;69.10;101332.28;4978216;28;46598;-72
2022/10/27 07:06:56;;;;;;;;;5.67;3.33;;;;;16.61;68.62;101344.38;4977621;28;45992;-72
2022/10/27 07:09:27;;;;;;;;;5.00;3.00;;;;;16.62;68.66;101341.53;4976995;28;46072;-71
2022/10/27 07:11:53;;;;;;;;;7.67;5.00;;;;;16.31;68.77;101302.94;4977881;28;45855;-70
2022/10/27 07:14:18;;;;;;;;;8.33;8.00;;;;;16.57;68.80;101346.56;4978016;28;45292;-71
2022/10/27 07:16:43;;;;;;;;;4.67;4.67;;;;;16.69;68.82;101377.47;4976114;28;55029;-72
2022/10/27 07:19:08;;;;;;;;;4.00;4.00;;;;;16.50;68.73;101334.81;4978147;28;45542;-74
2022/10/27 07:21:34;;;;;;;;;6.33;5.33;;;;;16.76;68.62;101358.81;4977886;28;45353;-72
2022/10/27 07:23:59;;;;;;;;;7.00;6.00;;;;;16.73;68.56;101349.25;4979039;28;45485;-71
2022/10/27 07:26:25;;;;;;;;;6.00;5.33;;;;;16.51;68.42;101320.41;4977808;28;53313;-71
2022/10/27 07:28:50;;;;;;;;;13.00;5.33;;;;;16.67;67.96;101354.47;4977331;28;45496;-72
2022/10/27 07:31:15;;;;;;;;;5.67;5.67;;;;;16.62;68.29;101343.38;4977746;28;45458;-72
2022/10/27 07:33:41;;;;;;;;;5.67;5.67;;;;;16.91;67.90;101399.28;4993547;28;45353;-72
2022/10/27 07:36:06;;;;;;;;;5.00;5.00;;;;;17.01;67.99;101405.28;4976766;28;67959;-73
2022/10/27 07:38:32;;;;;;;;;5.33;4.00;;;;;17.09;67.67;101425.94;4977569;28;45390;-71
2022/10/27 07:40:57;;;;;;;;;4.67;4.00;;;;;16.57;67.37;101311.66;4978701;28;45461;-72
2022/10/27 07:43:22;;;;;;;;;3.00;3.00;;;;;17.22;67.14;101400.25;4978151;28;45654;-72
2022/10/27 07:45:48;;;;;;;;;4.00;4.00;;;;;16.80;66.67;101316.34;4977331;28;46154;-72
2022/10/27 07:48:15;;;;;;;;;4.75;3.75;;;;;17.32;66.45;101392.81;4977076;28;45456;-71
2022/10/27 07:50:42;;;;;;;;;5.00;5.00;;;;;17.63;65.74;101411.72;4977418;28;45310;-70
2022/10/27 07:53:08;;;;;;;;;6.33;5.00;;;;;17.84;65.44;101411.16;4977452;28;45389;-72
2022/10/27 07:55:35;;;;;;;;;4.33;3.00;;;;;18.37;63.80;101409.50;4976142;28;48339;-72
2022/10/27 07:58:09;;;;;;;;;7.33;5.00;;;;;18.42;63.45;101400.88;4977281;28;45259;-71
2022/10/27 08:00:37;;;;;;;;;5.00;5.00;;;;;18.47;63.17;101399.34;4993001;28;45517;-71
2022/10/27 08:03:04;;;;;;;;;7.00;6.00;;;;;18.40;63.08;101374.13;4992540;28;45577;-72
2022/10/27 08:05:32;;;;;;;;;4.50;4.50;;;;;18.39;62.93;101348.22;4977692;28;46610;-72
2022/10/27 08:08:03;;;;;;;;;7.33;6.00;;;;;19.00;61.89;101400.25;4975532;28;45296;-72
2022/10/27 08:10:30;;;;;;;;;7.67;6.67;;;;;19.03;61.24;101382.91;4970148;28;45254;-74
2022/10/27 08:12:56;;;;;;;;;3.33;2.00;;;;;19.02;61.65;101371.28;4978502;28;45451;-72
2022/10/27 08:15:21;;;;;;;;;6.67;5.33;;;;;18.04;61.05;101241.22;4976953;28;45584;-73
2022/10/27 08:17:51;;;;;;;;;6.33;5.67;;;;;18.62;61.66;101340.16;4977349;28;45227;-72
2022/10/27 08:20:17;;;;;;;;;8.33;6.00;;;;;18.83;61.99;101388.81;4976195;28;45497;-71
2022/10/27 08:22:42;;;;;;;;;4.67;4.67;;;;;18.87;62.33;101400.06;4979048;28;45509;-72
2022/10/27 08:25:08;;;;;;;;;5.00;5.00;;;;;18.79;62.30;101405.50;4979404;28;46096;-77
2022/10/27 08:27:33;;;;;;;;;6.00;6.00;;;;;18.22;62.58;101327.84;4978596;28;45397;-72
2022/10/27 08:29:59;;;;;;;;;6.00;6.00;;;;;18.41;62.81;101383.88;4977987;28;45357;-72
2022/10/27 08:32:24;;;;;;;;;6.33;6.33;;;;;18.43;63.17;101403.41;4977383;28;45434;-71
2022/10/27 08:34:49;;;;;;;;;8.33;8.33;;;;;18.45;63.63;101408.63;4977297;28;45906;-71
2022/10/27 08:37:15;;;;;;;;;7.00;6.00;;;;;18.39;63.45;101398.53;4976740;28;45637;-74
2022/10/27 08:39:40;;;;;;;;;8.33;7.33;;;;;18.32;63.86;101405.66;4977307;28;45495;-71
2022/10/27 08:42:16;;;;;;;;;8.00;5.00;;;;;18.39;64.02;101420.91;4978101;28;45468;-72
2022/10/27 08:44:52;;;;;;;;;6.00;6.00;;;;;18.37;64.15;101412.19;4977072;28;45940;-73
2022/10/27 08:47:23;;;;;;;;;9.33;8.33;;;;;17.09;63.98;101202.97;4977061;28;45282;-73
2022/10/27 08:49:56;;;;;;;;;10.67;5.33;;;;;18.18;63.90;101385.72;4970003;28;45460;-71
2022/10/27 08:52:48;;;;;;;;;8.33;6.67;;;;;18.36;64.12;101421.28;4992031;28;45500;-76
2022/10/27 08:55:13;;;;;;;;;13.00;11.67;;;;;18.40;64.27;101422.59;4987100;28;46234;-73
2022/10/27 08:58:00;;;;;;;;;11.33;8.33;;;;;18.42;64.31;101427.78;4975330;28;45476;-72
2022/10/27 09:00:29;;;;;;;;;12.00;8.33;;;;;18.42;64.34;101436.72;4977434;28;45257;-77
2022/10/27 09:03:22;;;;;;;;;10.50;6.25;;;;;17.65;64.43;101301.28;4968549;28;45332;-72
2022/10/27 09:06:23;;;;;;;;;8.00;7.00;;;;;18.25;64.07;101389.41;4975209;28;47337;-72
2022/10/27 09:09:13;;;;;;;;;8.33;7.00;;;;;18.21;64.10;101374.59;4942817;28;45329;-73
2022/10/27 09:12:05;;;;;;;;;7.33;7.33;;;;;18.26;63.99;101379.47;4976313;28;45565;-74
2022/10/27 09:14:44;;;;;;;;;8.00;6.00;;;;;18.66;63.87;101429.53;4977159;28;45555;-72
2022/10/27 09:17:15;;;;;;;;;9.33;7.67;;;;;18.75;63.39;101439.19;4975176;28;46833;-73
2022/10/27 09:19:47;;;;;;;;;7.00;7.00;;;;;18.60;63.43;101395.19;4976043;28;45385;-72
2022/10/27 09:22:16;;;;;;;;;10.67;9.33;;;;;18.17;62.84;101306.00;4978501;28;45410;-73
2022/10/27 09:24:41;;;;;;;;;8.50;6.75;;;;;18.64;62.73;101366.94;4995130;28;45626;-73
2022/10/27 09:27:12;;;;;;;;;7.00;7.00;;;;;18.08;62.40;101277.50;4994797;28;47872;-73
2022/10/27 09:29:38;;;;;;;;;10.67;10.67;;;;;18.89;62.51;101408.78;4980323;28;45475;-74
2022/10/27 09:32:23;;;;;;;;;8.33;8.33;;;;;19.14;62.65;101445.25;4979837;28;45479;-74
2022/10/27 09:35:02;;;;;;;;;8.75;8.00;;;;;18.79;61.95;101384.78;4979964;28;45577;-72
2022/10/27 09:37:31;;;;;;;;;7.00;6.00;;;;;19.28;62.12;101449.00;4995897;28;47691;-72
2022/10/27 09:39:57;;;;;;;;;11.67;9.00;;;;;19.34;62.05;101455.53;4995191;28;45491;-75
2022/10/27 09:42:23;;;;;;;;;19.00;18.00;;;;;18.44;61.91;101278.53;4979050;28;45165;-72
2022/10/27 09:44:57;;;;;;;;;15.33;13.33;;;;;19.35;61.74;101417.59;4995357;28;45632;-74
2022/10/27 09:47:26;;;;;;;;;7.00;7.00;;;;;19.35;61.41;101430.22;4979616;28;46053;-72
2022/10/27 09:49:54;;;;;;;;;8.67;8.67;;;;;19.24;61.44;101396.50;4980168;28;45336;-73
2022/10/27 09:52:33;;;;;;;;;9.33;7.67;;;;;19.70;61.15;101444.88;4973496;28;45373;-71
2022/10/27 09:54:58;;;;;;;;;8.67;8.67;;;;;19.69;60.46;101411.66;4978658;28;46623;-71
2022/10/27 09:57:34;;;;;;;;;11.33;9.67;;;;;18.00;60.51;101099.97;4994676;28;46481;-72
2022/10/27 10:00:07;;;;;;;;;1.67;1.67;;;;;20.11;60.04;101418.19;4979461;28;45241;-73
2022/10/27 10:02:36;;;;;;;;;9.33;7.67;;;;;19.91;59.64;101382.03;4979276;28;45255;-73
2022/10/27 10:05:18;;;;;;;;;8.33;7.00;;;;;20.14;59.19;101398.09;4979761;28;45473;-71
2022/10/27 10:07:45;;;;;;;;;11.00;9.33;;;;;20.21;59.17;101391.72;4978696;28;48622;-72
2022/10/27 10:10:28;;;;;;;;;6.67;6.67;;;;;20.44;58.76;101431.28;4980008;28;45263;-73
2022/10/27 10:13:03;;;;;;;;;7.00;6.00;;;;;20.42;58.75;101427.91;4981799;28;45274;-76
2022/10/27 10:15:31;;;;;;;;;8.00;7.00;;;;;20.15;58.80;101389.78;4981855;28;45506;-72
2022/10/27 10:18:01;;;;;;;;;8.00;6.00;;;;;20.16;58.63;101388.75;4995518;28;47899;-73
2022/10/27 10:20:35;;;;;;;;;10.33;6.00;;;;;20.35;58.49;101417.84;4994739;28;45261;-74
2022/10/27 10:23:21;;;;;;;;;6.67;6.67;;;;;20.45;58.38;101419.44;4979887;28;45437;-74
2022/10/27 10:25:52;;;;;;;;;7.00;7.00;;;;;20.46;58.30;101423.81;4979593;28;45187;-71
2022/10/27 10:28:31;;;;;;;;;7.33;6.00;;;;;19.81;58.62;101316.75;4978935;28;45548;-72
2022/10/27 10:30:58;;;;;;;;;7.33;7.33;;;;;20.38;58.22;101410.38;4994411;28;45216;-71
2022/10/27 10:33:29;;;;;;;;;5.00;5.00;;;;;20.62;57.84;101450.56;4977460;28;45235;-73
2022/10/27 10:35:54;;;;;;;;;7.67;6.00;;;;;20.64;58.15;101435.00;4979305;28;45512;-73
2022/10/27 10:38:23;;;;;;;;;7.67;7.67;;;;;20.68;57.92;101439.00;4977624;28;45774;-73
2022/10/27 10:40:54;;;;;;;;;7.00;6.00;;;;;20.74;57.66;101454.44;4979117;28;45509;-72
2022/10/27 10:43:20;;;;;;;;;9.67;8.00;;;;;20.77;57.50;101445.94;4977983;28;45307;-72
2022/10/27 10:45:51;;;;;;;;;8.00;8.00;;;;;20.16;57.56;101344.72;4979433;28;45663;-73
2022/10/27 10:48:25;;;;;;;;;9.00;9.00;;;;;20.86;57.54;101447.47;4979999;28;45732;-72
2022/10/27 10:50:52;;;;;;;;;12.67;10.00;;;;;20.72;57.18;101415.94;4980463;28;45519;-74
2022/10/27 10:53:41;;;;;;;;;9.00;6.67;;;;;20.92;57.39;101435.03;4977814;28;46114;-72
2022/10/27 10:56:36;;;;;;;;;14.67;14.00;;;;;20.95;57.33;101435.47;4974637;28;45241;-75
2022/10/27 10:59:19;;;;;;;;;9.67;9.67;;;;;21.02;57.31;101424.72;4980488;28;49106;-73
2022/10/27 11:01:53;;;;;;;;;7.33;4.67;;;;;21.07;57.55;101433.09;4980589;28;45413;-74
2022/10/27 11:04:24;;;;;;;;;10.67;10.67;;;;;20.35;57.00;101303.59;4979834;28;45526;-72
2022/10/27 11:06:58;;;;;;;;;7.00;5.50;;;;;21.10;57.36;101431.88;4979181;28;45497;-74
2022/10/27 11:09:31;;;;;;;;;12.50;9.75;;;;;21.01;56.85;101422.22;4978602;28;47113;-72
2022/10/27 11:11:58;;;;;;;;;13.33;12.00;;;;;21.12;56.75;101436.03;4977075;28;45392;-73
2022/10/27 11:14:25;;;;;;;;;7.50;7.50;;;;;21.04;56.49;101411.03;4978749;28;45257;-71
2022/10/27 11:16:57;;;;;;;;;6.50;6.50;;;;;21.01;56.93;101406.00;4978325;28;45452;-73
2022/10/27 11:19:27;;;;;;;;;7.33;5.67;;;;;21.25;56.58;101413.72;4993572;28;48527;-73
2022/10/27 11:22:00;;;;;;;;;10.67;8.67;;;;;21.34;56.34;101404.41;4993432;28;45473;-74
2022/10/27 11:24:40;;;;;;;;;7.33;7.33;;;;;21.34;55.83;101393.56;4978477;28;45552;-74
2022/10/27 11:27:17;;;;;;;;;10.33;7.33;;;;;20.24;55.88;101229.34;4994692;28;45621;-75
2022/10/27 11:29:58;;;;;;;;;9.00;8.00;;;;;21.53;55.11;101398.25;4977829;28;46309;-72
2022/10/27 11:32:36;;;;;;;;;8.67;6.00;;;;;21.08;55.15;101309.56;4971898;28;45499;-72
2022/10/27 11:35:14;;;;;;;;;7.33;7.00;;;;;21.34;54.95;101338.66;4978004;28;45596;-72